<?xml version="1.0" encoding="UTF-8" standalone="no" ?>
<gpx xmlns="http://www.topografix.com/GPX/1/1" xmlns:xsi="http://www.w3.org/2001/XMLSchema-instance" xsi:schemaLocation="http://www.topografix.com/GPX/1/1 http://www.topografix.com/GPX/1/1/gpx.xsd" version="1.1" creator="VisuGPX - https://www.visugpx.com">
  <metadata>
    <name>La Roche des Arnauds, col de Gleize, Chaudun, Rabou, La Roche des Arnauds</name>
    <desc><![CDATA[La Roche des Arnauds, col de Gleize, Chaudun, Rabou, La Roche des Arnauds]]></desc>
  </metadata>
  <trk>
    <name><![CDATA[La Roche des Arnauds Boucle VTT]]></name>
    <desc><![CDATA[La Roche des Arnauds, col de Gleize, Chaudun, Rabou, La Roche des Arnauds]]></desc>
    <trkseg>
      <trkpt lat="44.55875" lon="5.95422">
        <ele>932</ele>
        <time>2011-07-15T09:16:40Z</time>
      </trkpt>
      <trkpt lat="44.55837" lon="5.95386">
        <ele>932.2</ele>
        <time>2011-07-15T09:16:47Z</time>
      </trkpt>
      <trkpt lat="44.55742" lon="5.95356">
        <ele>930.8</ele>
        <time>2011-07-15T09:17:06Z</time>
      </trkpt>
      <trkpt lat="44.5545" lon="5.95156">
        <ele>926.4</ele>
        <time>2011-07-15T09:18:08Z</time>
      </trkpt>
      <trkpt lat="44.54944" lon="5.95113">
        <ele>938.2</ele>
        <time>2011-07-15T09:20:57Z</time>
      </trkpt>
      <trkpt lat="44.549" lon="5.95146">
        <ele>939.6</ele>
        <time>2011-07-15T09:21:10Z</time>
      </trkpt>
      <trkpt lat="44.54807" lon="5.95293">
        <ele>940.8</ele>
        <time>2011-07-15T09:21:51Z</time>
      </trkpt>
      <trkpt lat="44.54738" lon="5.95471">
        <ele>941</ele>
        <time>2011-07-15T09:25:29Z</time>
      </trkpt>
      <trkpt lat="44.54671" lon="5.95535">
        <ele>943.8</ele>
        <time>2011-07-15T09:25:49Z</time>
      </trkpt>
      <trkpt lat="44.54644" lon="5.95588">
        <ele>944</ele>
        <time>2011-07-15T09:26:01Z</time>
      </trkpt>
      <trkpt lat="44.54641" lon="5.95685">
        <ele>944</ele>
        <time>2011-07-15T09:26:19Z</time>
      </trkpt>
      <trkpt lat="44.5467" lon="5.95921">
        <ele>946.8</ele>
        <time>2011-07-15T09:27:06Z</time>
      </trkpt>
      <trkpt lat="44.54765" lon="5.96134">
        <ele>946.8</ele>
        <time>2011-07-15T09:27:51Z</time>
      </trkpt>
      <trkpt lat="44.54798" lon="5.96356">
        <ele>949.2</ele>
        <time>2011-07-15T09:28:26Z</time>
      </trkpt>
      <trkpt lat="44.54854" lon="5.96477">
        <ele>949.4</ele>
        <time>2011-07-15T09:28:49Z</time>
      </trkpt>
      <trkpt lat="44.54859" lon="5.96624">
        <ele>950</ele>
        <time>2011-07-15T09:29:26Z</time>
      </trkpt>
      <trkpt lat="44.54751" lon="5.96606">
        <ele>951.6</ele>
        <time>2011-07-15T09:30:01Z</time>
      </trkpt>
      <trkpt lat="44.54642" lon="5.9699">
        <ele>947</ele>
        <time>2011-07-15T09:31:04Z</time>
      </trkpt>
      <trkpt lat="44.54519" lon="5.9724">
        <ele>950.4</ele>
        <time>2011-07-15T09:31:45Z</time>
      </trkpt>
      <trkpt lat="44.54494" lon="5.97344">
        <ele>949.4</ele>
        <time>2011-07-15T09:32:00Z</time>
      </trkpt>
      <trkpt lat="44.54506" lon="5.97413">
        <ele>945.4</ele>
        <time>2011-07-15T09:32:09Z</time>
      </trkpt>
      <trkpt lat="44.54392" lon="5.98174">
        <ele>948.8</ele>
        <time>2011-07-15T09:34:03Z</time>
      </trkpt>
      <trkpt lat="44.54399" lon="5.98214">
        <ele>949.6</ele>
        <time>2011-07-15T09:35:55Z</time>
      </trkpt>
      <trkpt lat="44.54679" lon="5.98359">
        <ele>952.6</ele>
        <time>2011-07-15T09:37:14Z</time>
      </trkpt>
      <trkpt lat="44.54672" lon="5.98441">
        <ele>957</ele>
        <time>2011-07-15T09:37:46Z</time>
      </trkpt>
      <trkpt lat="44.54863" lon="5.9813">
        <ele>953.2</ele>
        <time>2011-07-15T09:38:58Z</time>
      </trkpt>
      <trkpt lat="44.54823" lon="5.98278">
        <ele>955.2</ele>
        <time>2011-07-15T09:39:36Z</time>
      </trkpt>
      <trkpt lat="44.54793" lon="5.98701">
        <ele>978.6</ele>
        <time>2011-07-15T09:42:21Z</time>
      </trkpt>
      <trkpt lat="44.54749" lon="5.98692">
        <ele>976.8</ele>
        <time>2011-07-15T09:43:34Z</time>
      </trkpt>
      <trkpt lat="44.54707" lon="5.98724">
        <ele>975</ele>
        <time>2011-07-15T09:44:02Z</time>
      </trkpt>
      <trkpt lat="44.54678" lon="5.98849">
        <ele>979</ele>
        <time>2011-07-15T09:44:33Z</time>
      </trkpt>
      <trkpt lat="44.54634" lon="5.98953">
        <ele>979.6</ele>
        <time>2011-07-15T09:44:55Z</time>
      </trkpt>
      <trkpt lat="44.5463" lon="5.99019">
        <ele>980.2</ele>
        <time>2011-07-15T09:45:10Z</time>
      </trkpt>
      <trkpt lat="44.5473" lon="5.995">
        <ele>995.2</ele>
        <time>2011-07-15T09:47:02Z</time>
      </trkpt>
      <trkpt lat="44.54749" lon="5.99531">
        <ele>996.8</ele>
        <time>2011-07-15T09:47:13Z</time>
      </trkpt>
      <trkpt lat="44.54907" lon="5.99566">
        <ele>1013</ele>
        <time>2011-07-15T09:48:55Z</time>
      </trkpt>
      <trkpt lat="44.55002" lon="5.99268">
        <ele>1030.6</ele>
        <time>2011-07-15T09:50:58Z</time>
      </trkpt>
      <trkpt lat="44.55018" lon="5.99352">
        <ele>1037.4</ele>
        <time>2011-07-15T09:51:35Z</time>
      </trkpt>
      <trkpt lat="44.55174" lon="5.99248">
        <ele>1065.6</ele>
        <time>2011-07-15T09:53:47Z</time>
      </trkpt>
      <trkpt lat="44.55166" lon="5.99267">
        <ele>1066.6</ele>
        <time>2011-07-15T09:53:57Z</time>
      </trkpt>
      <trkpt lat="44.55221" lon="5.99121">
        <ele>1068.6</ele>
        <time>2011-07-15T09:55:01Z</time>
      </trkpt>
      <trkpt lat="44.55351" lon="5.9936">
        <ele>1095.8</ele>
        <time>2011-07-15T09:59:11Z</time>
      </trkpt>
      <trkpt lat="44.55425" lon="5.99441">
        <ele>1099.4</ele>
        <time>2011-07-15T09:59:45Z</time>
      </trkpt>
      <trkpt lat="44.55432" lon="5.99486">
        <ele>1100.2</ele>
        <time>2011-07-15T10:00:01Z</time>
      </trkpt>
      <trkpt lat="44.5537" lon="5.99587">
        <ele>1104</ele>
        <time>2011-07-15T10:00:34Z</time>
      </trkpt>
      <trkpt lat="44.55479" lon="5.99707">
        <ele>1108.8</ele>
        <time>2011-07-15T10:01:35Z</time>
      </trkpt>
      <trkpt lat="44.55493" lon="5.99897">
        <ele>1109.2</ele>
        <time>2011-07-15T10:02:17Z</time>
      </trkpt>
      <trkpt lat="44.5558" lon="6.00182">
        <ele>1114.2</ele>
        <time>2011-07-15T10:03:23Z</time>
      </trkpt>
      <trkpt lat="44.55621" lon="6.00251">
        <ele>1116.8</ele>
        <time>2011-07-15T10:03:47Z</time>
      </trkpt>
      <trkpt lat="44.55679" lon="6.00468">
        <ele>1124.4</ele>
        <time>2011-07-15T10:04:44Z</time>
      </trkpt>
      <trkpt lat="44.55744" lon="6.00537">
        <ele>1136.2</ele>
        <time>2011-07-15T10:06:28Z</time>
      </trkpt>
      <trkpt lat="44.55748" lon="6.00604">
        <ele>1136.8</ele>
        <time>2011-07-15T10:07:01Z</time>
      </trkpt>
      <trkpt lat="44.55877" lon="6.01092">
        <ele>1137.4</ele>
        <time>2011-07-15T10:09:32Z</time>
      </trkpt>
      <trkpt lat="44.55888" lon="6.0131">
        <ele>1135.4</ele>
        <time>2011-07-15T10:10:17Z</time>
      </trkpt>
      <trkpt lat="44.55928" lon="6.01373">
        <ele>1139</ele>
        <time>2011-07-15T10:11:38Z</time>
      </trkpt>
      <trkpt lat="44.55974" lon="6.01635">
        <ele>1136</ele>
        <time>2011-07-15T10:12:21Z</time>
      </trkpt>
      <trkpt lat="44.5597" lon="6.01772">
        <ele>1134.4</ele>
        <time>2011-07-15T10:12:41Z</time>
      </trkpt>
      <trkpt lat="44.55985" lon="6.01806">
        <ele>1137</ele>
        <time>2011-07-15T10:12:48Z</time>
      </trkpt>
      <trkpt lat="44.55982" lon="6.01862">
        <ele>1135.2</ele>
        <time>2011-07-15T10:12:57Z</time>
      </trkpt>
      <trkpt lat="44.56028" lon="6.02157">
        <ele>1138.8</ele>
        <time>2011-07-15T10:13:38Z</time>
      </trkpt>
      <trkpt lat="44.56116" lon="6.02389">
        <ele>1141</ele>
        <time>2011-07-15T10:14:14Z</time>
      </trkpt>
      <trkpt lat="44.56239" lon="6.02623">
        <ele>1140.2</ele>
        <time>2011-07-15T10:14:54Z</time>
      </trkpt>
      <trkpt lat="44.563" lon="6.02631">
        <ele>1153.8</ele>
        <time>2011-07-15T10:15:06Z</time>
      </trkpt>
      <trkpt lat="44.56324" lon="6.02721">
        <ele>1145.2</ele>
        <time>2011-07-15T10:15:19Z</time>
      </trkpt>
      <trkpt lat="44.5647" lon="6.02889">
        <ele>1145.2</ele>
        <time>2011-07-15T10:15:59Z</time>
      </trkpt>
      <trkpt lat="44.56542" lon="6.02922">
        <ele>1150.6</ele>
        <time>2011-07-15T10:16:14Z</time>
      </trkpt>
      <trkpt lat="44.56611" lon="6.03">
        <ele>1145.4</ele>
        <time>2011-07-15T10:16:35Z</time>
      </trkpt>
      <trkpt lat="44.56636" lon="6.03003">
        <ele>1149</ele>
        <time>2011-07-15T10:16:40Z</time>
      </trkpt>
      <trkpt lat="44.56829" lon="6.03205">
        <ele>1146.4</ele>
        <time>2011-07-15T10:17:32Z</time>
      </trkpt>
      <trkpt lat="44.56845" lon="6.0327">
        <ele>1139</ele>
        <time>2011-07-15T10:17:42Z</time>
      </trkpt>
      <trkpt lat="44.57019" lon="6.03459">
        <ele>1143.6</ele>
        <time>2011-07-15T10:18:26Z</time>
      </trkpt>
      <trkpt lat="44.57076" lon="6.03561">
        <ele>1134</ele>
        <time>2011-07-15T10:18:43Z</time>
      </trkpt>
      <trkpt lat="44.57135" lon="6.03562">
        <ele>1135.6</ele>
        <time>2011-07-15T10:18:54Z</time>
      </trkpt>
      <trkpt lat="44.57178" lon="6.03526">
        <ele>1147.8</ele>
        <time>2011-07-15T10:19:03Z</time>
      </trkpt>
      <trkpt lat="44.57214" lon="6.03528">
        <ele>1149.2</ele>
        <time>2011-07-15T10:19:12Z</time>
      </trkpt>
      <trkpt lat="44.57229" lon="6.03598">
        <ele>1139.2</ele>
        <time>2011-07-15T10:19:27Z</time>
      </trkpt>
      <trkpt lat="44.57271" lon="6.03634">
        <ele>1145.8</ele>
        <time>2011-07-15T10:19:38Z</time>
      </trkpt>
      <trkpt lat="44.57304" lon="6.03695">
        <ele>1153.6</ele>
        <time>2011-07-15T10:19:50Z</time>
      </trkpt>
      <trkpt lat="44.57253" lon="6.03722">
        <ele>1140.2</ele>
        <time>2011-07-15T10:20:02Z</time>
      </trkpt>
      <trkpt lat="44.57199" lon="6.03783">
        <ele>1127</ele>
        <time>2011-07-15T10:20:16Z</time>
      </trkpt>
      <trkpt lat="44.57209" lon="6.03817">
        <ele>1130.6</ele>
        <time>2011-07-15T10:20:21Z</time>
      </trkpt>
      <trkpt lat="44.5736" lon="6.0399">
        <ele>1143.8</ele>
        <time>2011-07-15T10:20:57Z</time>
      </trkpt>
      <trkpt lat="44.57445" lon="6.04193">
        <ele>1139.8</ele>
        <time>2011-07-15T10:21:29Z</time>
      </trkpt>
      <trkpt lat="44.57494" lon="6.04266">
        <ele>1148</ele>
        <time>2011-07-15T10:21:42Z</time>
      </trkpt>
      <trkpt lat="44.57539" lon="6.04409">
        <ele>1141</ele>
        <time>2011-07-15T10:22:03Z</time>
      </trkpt>
      <trkpt lat="44.57605" lon="6.04542">
        <ele>1140.4</ele>
        <time>2011-07-15T10:22:33Z</time>
      </trkpt>
      <trkpt lat="44.57574" lon="6.04506">
        <ele>1137.8</ele>
        <time>2011-07-15T10:22:50Z</time>
      </trkpt>
      <trkpt lat="44.57532" lon="6.04529">
        <ele>1123.6</ele>
        <time>2011-07-15T10:23:25Z</time>
      </trkpt>
      <trkpt lat="44.57572" lon="6.04605">
        <ele>1123</ele>
        <time>2011-07-15T10:24:27Z</time>
      </trkpt>
      <trkpt lat="44.57595" lon="6.04739">
        <ele>1107.4</ele>
        <time>2011-07-15T10:24:42Z</time>
      </trkpt>
      <trkpt lat="44.57648" lon="6.04782">
        <ele>1107.4</ele>
        <time>2011-07-15T10:24:53Z</time>
      </trkpt>
      <trkpt lat="44.57678" lon="6.04838">
        <ele>1100</ele>
        <time>2011-07-15T10:25:00Z</time>
      </trkpt>
      <trkpt lat="44.57666" lon="6.04863">
        <ele>1093.8</ele>
        <time>2011-07-15T10:25:07Z</time>
      </trkpt>
      <trkpt lat="44.57648" lon="6.04857">
        <ele>1091.6</ele>
        <time>2011-07-15T10:25:12Z</time>
      </trkpt>
      <trkpt lat="44.57613" lon="6.0489">
        <ele>1080.2</ele>
        <time>2011-07-15T10:25:21Z</time>
      </trkpt>
      <trkpt lat="44.57633" lon="6.04929">
        <ele>1078.4</ele>
        <time>2011-07-15T10:25:30Z</time>
      </trkpt>
      <trkpt lat="44.57613" lon="6.0499">
        <ele>1070.6</ele>
        <time>2011-07-15T10:25:41Z</time>
      </trkpt>
      <trkpt lat="44.57751" lon="6.05223">
        <ele>1065.2</ele>
        <time>2011-07-15T10:26:26Z</time>
      </trkpt>
      <trkpt lat="44.57746" lon="6.05241">
        <ele>1061.8</ele>
        <time>2011-07-15T10:27:03Z</time>
      </trkpt>
      <trkpt lat="44.57743" lon="6.05227">
        <ele>1063.6</ele>
        <time>2011-07-15T10:27:28Z</time>
      </trkpt>
      <trkpt lat="44.57712" lon="6.05257">
        <ele>1056.2</ele>
        <time>2011-07-15T10:27:47Z</time>
      </trkpt>
      <trkpt lat="44.57691" lon="6.05247">
        <ele>1054.8</ele>
        <time>2011-07-15T10:29:51Z</time>
      </trkpt>
      <trkpt lat="44.57738" lon="6.05295">
        <ele>1055.2</ele>
        <time>2011-07-15T10:30:09Z</time>
      </trkpt>
      <trkpt lat="44.57778" lon="6.0537">
        <ele>1054</ele>
        <time>2011-07-15T10:30:30Z</time>
      </trkpt>
      <trkpt lat="44.57846" lon="6.0543">
        <ele>1056</ele>
        <time>2011-07-15T10:30:59Z</time>
      </trkpt>
      <trkpt lat="44.57816" lon="6.05445">
        <ele>1052.6</ele>
        <time>2011-07-15T10:31:14Z</time>
      </trkpt>
      <trkpt lat="44.57916" lon="6.05595">
        <ele>1054</ele>
        <time>2011-07-15T10:32:10Z</time>
      </trkpt>
      <trkpt lat="44.58037" lon="6.05703">
        <ele>1053.2</ele>
        <time>2011-07-15T10:32:46Z</time>
      </trkpt>
      <trkpt lat="44.58156" lon="6.05903">
        <ele>1052.8</ele>
        <time>2011-07-15T10:33:39Z</time>
      </trkpt>
      <trkpt lat="44.58238" lon="6.05933">
        <ele>1056</ele>
        <time>2011-07-15T10:34:13Z</time>
      </trkpt>
      <trkpt lat="44.58243" lon="6.05959">
        <ele>1054.4</ele>
        <time>2011-07-15T10:34:20Z</time>
      </trkpt>
      <trkpt lat="44.58445" lon="6.05991">
        <ele>1086.8</ele>
        <time>2011-07-15T10:35:54Z</time>
      </trkpt>
      <trkpt lat="44.58606" lon="6.06217">
        <ele>1097</ele>
        <time>2011-07-15T10:37:44Z</time>
      </trkpt>
      <trkpt lat="44.58696" lon="6.06246">
        <ele>1109</ele>
        <time>2011-07-15T10:38:24Z</time>
      </trkpt>
      <trkpt lat="44.587" lon="6.06265">
        <ele>1108.6</ele>
        <time>2011-07-15T10:38:33Z</time>
      </trkpt>
      <trkpt lat="44.58731" lon="6.06259">
        <ele>1116</ele>
        <time>2011-07-15T10:39:25Z</time>
      </trkpt>
      <trkpt lat="44.58775" lon="6.06312">
        <ele>1122.8</ele>
        <time>2011-07-15T10:40:13Z</time>
      </trkpt>
      <trkpt lat="44.58836" lon="6.06307">
        <ele>1136.8</ele>
        <time>2011-07-15T10:42:59Z</time>
      </trkpt>
      <trkpt lat="44.58899" lon="6.06417">
        <ele>1138.8</ele>
        <time>2011-07-15T10:43:37Z</time>
      </trkpt>
      <trkpt lat="44.58917" lon="6.06484">
        <ele>1134.8</ele>
        <time>2011-07-15T10:43:50Z</time>
      </trkpt>
      <trkpt lat="44.58973" lon="6.06545">
        <ele>1132.6</ele>
        <time>2011-07-15T10:44:15Z</time>
      </trkpt>
      <trkpt lat="44.59026" lon="6.06528">
        <ele>1135.8</ele>
        <time>2011-07-15T10:44:27Z</time>
      </trkpt>
      <trkpt lat="44.59089" lon="6.06452">
        <ele>1148.8</ele>
        <time>2011-07-15T10:44:44Z</time>
      </trkpt>
      <trkpt lat="44.59132" lon="6.06449">
        <ele>1156</ele>
        <time>2011-07-15T10:45:00Z</time>
      </trkpt>
      <trkpt lat="44.59187" lon="6.06546">
        <ele>1149.6</ele>
        <time>2011-07-15T10:45:43Z</time>
      </trkpt>
      <trkpt lat="44.59183" lon="6.06688">
        <ele>1137.8</ele>
        <time>2011-07-15T10:46:03Z</time>
      </trkpt>
      <trkpt lat="44.59214" lon="6.06849">
        <ele>1132.2</ele>
        <time>2011-07-15T10:46:26Z</time>
      </trkpt>
      <trkpt lat="44.59313" lon="6.06833">
        <ele>1152.8</ele>
        <time>2011-07-15T10:46:49Z</time>
      </trkpt>
      <trkpt lat="44.59363" lon="6.06864">
        <ele>1153.4</ele>
        <time>2011-07-15T10:47:01Z</time>
      </trkpt>
      <trkpt lat="44.59321" lon="6.06932">
        <ele>1134.2</ele>
        <time>2011-07-15T10:47:19Z</time>
      </trkpt>
      <trkpt lat="44.59482" lon="6.06988">
        <ele>1152.2</ele>
        <time>2011-07-15T10:47:59Z</time>
      </trkpt>
      <trkpt lat="44.59439" lon="6.07025">
        <ele>1141</ele>
        <time>2011-07-15T10:48:12Z</time>
      </trkpt>
      <trkpt lat="44.59372" lon="6.07203">
        <ele>1133.6</ele>
        <time>2011-07-15T10:48:45Z</time>
      </trkpt>
      <trkpt lat="44.59421" lon="6.07305">
        <ele>1138.8</ele>
        <time>2011-07-15T10:49:06Z</time>
      </trkpt>
      <trkpt lat="44.59543" lon="6.07341">
        <ele>1146.2</ele>
        <time>2011-07-15T10:49:33Z</time>
      </trkpt>
      <trkpt lat="44.59586" lon="6.07388">
        <ele>1142</ele>
        <time>2011-07-15T10:49:45Z</time>
      </trkpt>
      <trkpt lat="44.5976" lon="6.07418">
        <ele>1145.6</ele>
        <time>2011-07-15T10:50:26Z</time>
      </trkpt>
      <trkpt lat="44.59743" lon="6.07406">
        <ele>1146.4</ele>
        <time>2011-07-15T10:50:37Z</time>
      </trkpt>
      <trkpt lat="44.5982" lon="6.07367">
        <ele>1160.4</ele>
        <time>2011-07-15T10:51:09Z</time>
      </trkpt>
      <trkpt lat="44.59855" lon="6.07421">
        <ele>1158.6</ele>
        <time>2011-07-15T10:51:32Z</time>
      </trkpt>
      <trkpt lat="44.59871" lon="6.07494">
        <ele>1157.6</ele>
        <time>2011-07-15T10:51:57Z</time>
      </trkpt>
      <trkpt lat="44.59937" lon="6.07598">
        <ele>1167.6</ele>
        <time>2011-07-15T10:52:44Z</time>
      </trkpt>
      <trkpt lat="44.59932" lon="6.07511">
        <ele>1170.2</ele>
        <time>2011-07-15T10:53:10Z</time>
      </trkpt>
      <trkpt lat="44.59953" lon="6.07444">
        <ele>1180</ele>
        <time>2011-07-15T10:53:34Z</time>
      </trkpt>
      <trkpt lat="44.599" lon="6.0734">
        <ele>1180.8</ele>
        <time>2011-07-15T10:54:14Z</time>
      </trkpt>
      <trkpt lat="44.59911" lon="6.07322">
        <ele>1185.4</ele>
        <time>2011-07-15T10:54:22Z</time>
      </trkpt>
      <trkpt lat="44.60026" lon="6.07383">
        <ele>1198.4</ele>
        <time>2011-07-15T10:55:18Z</time>
      </trkpt>
      <trkpt lat="44.60085" lon="6.07449">
        <ele>1202</ele>
        <time>2011-07-15T10:55:54Z</time>
      </trkpt>
      <trkpt lat="44.60179" lon="6.07379">
        <ele>1213.4</ele>
        <time>2011-07-15T10:56:42Z</time>
      </trkpt>
      <trkpt lat="44.60237" lon="6.07367">
        <ele>1219</ele>
        <time>2011-07-15T10:57:07Z</time>
      </trkpt>
      <trkpt lat="44.60313" lon="6.07402">
        <ele>1225</ele>
        <time>2011-07-15T10:57:46Z</time>
      </trkpt>
      <trkpt lat="44.60428" lon="6.07531">
        <ele>1231.8</ele>
        <time>2011-07-15T10:59:58Z</time>
      </trkpt>
      <trkpt lat="44.60652" lon="6.07641">
        <ele>1228</ele>
        <time>2011-07-15T11:01:00Z</time>
      </trkpt>
      <trkpt lat="44.60723" lon="6.07633">
        <ele>1229</ele>
        <time>2011-07-15T11:01:19Z</time>
      </trkpt>
      <trkpt lat="44.6073" lon="6.07655">
        <ele>1228.2</ele>
        <time>2011-07-15T11:01:25Z</time>
      </trkpt>
      <trkpt lat="44.6073" lon="6.0764">
        <ele>1228.6</ele>
        <time>2011-07-15T11:01:39Z</time>
      </trkpt>
      <trkpt lat="44.60792" lon="6.07646">
        <ele>1230.2</ele>
        <time>2011-07-15T11:04:24Z</time>
      </trkpt>
      <trkpt lat="44.60729" lon="6.07642">
        <ele>1228.6</ele>
        <time>2011-07-15T11:06:55Z</time>
      </trkpt>
      <trkpt lat="44.60721" lon="6.07756">
        <ele>1225.8</ele>
        <time>2011-07-15T11:07:18Z</time>
      </trkpt>
      <trkpt lat="44.60732" lon="6.07811">
        <ele>1224.2</ele>
        <time>2011-07-15T11:07:26Z</time>
      </trkpt>
      <trkpt lat="44.60773" lon="6.07862">
        <ele>1226.2</ele>
        <time>2011-07-15T11:07:34Z</time>
      </trkpt>
      <trkpt lat="44.60836" lon="6.07807">
        <ele>1229.8</ele>
        <time>2011-07-15T11:07:55Z</time>
      </trkpt>
      <trkpt lat="44.6096" lon="6.07765">
        <ele>1235.4</ele>
        <time>2011-07-15T11:08:48Z</time>
      </trkpt>
      <trkpt lat="44.61082" lon="6.07649">
        <ele>1243.6</ele>
        <time>2011-07-15T11:09:48Z</time>
      </trkpt>
      <trkpt lat="44.611" lon="6.07593">
        <ele>1246.2</ele>
        <time>2011-07-15T11:10:06Z</time>
      </trkpt>
      <trkpt lat="44.61192" lon="6.0753">
        <ele>1252</ele>
        <time>2011-07-15T11:10:50Z</time>
      </trkpt>
      <trkpt lat="44.61352" lon="6.07271">
        <ele>1278.2</ele>
        <time>2011-07-15T11:12:56Z</time>
      </trkpt>
      <trkpt lat="44.6131" lon="6.07212">
        <ele>1286</ele>
        <time>2011-07-15T11:13:26Z</time>
      </trkpt>
      <trkpt lat="44.61247" lon="6.07221">
        <ele>1286.8</ele>
        <time>2011-07-15T11:14:00Z</time>
      </trkpt>
      <trkpt lat="44.61214" lon="6.07157">
        <ele>1301.8</ele>
        <time>2011-07-15T11:16:21Z</time>
      </trkpt>
      <trkpt lat="44.61167" lon="6.07166">
        <ele>1305.2</ele>
        <time>2011-07-15T11:16:43Z</time>
      </trkpt>
      <trkpt lat="44.61041" lon="6.07068">
        <ele>1312.6</ele>
        <time>2011-07-15T11:18:05Z</time>
      </trkpt>
      <trkpt lat="44.61012" lon="6.0702">
        <ele>1317.4</ele>
        <time>2011-07-15T11:18:55Z</time>
      </trkpt>
      <trkpt lat="44.60987" lon="6.07016">
        <ele>1318</ele>
        <time>2011-07-15T11:19:30Z</time>
      </trkpt>
      <trkpt lat="44.60889" lon="6.06921">
        <ele>1337.6</ele>
        <time>2011-07-15T11:20:36Z</time>
      </trkpt>
      <trkpt lat="44.60694" lon="6.06852">
        <ele>1350.4</ele>
        <time>2011-07-15T11:22:25Z</time>
      </trkpt>
      <trkpt lat="44.60525" lon="6.06707">
        <ele>1362.2</ele>
        <time>2011-07-15T11:23:55Z</time>
      </trkpt>
      <trkpt lat="44.60516" lon="6.06592">
        <ele>1375</ele>
        <time>2011-07-15T11:24:46Z</time>
      </trkpt>
      <trkpt lat="44.60424" lon="6.06365">
        <ele>1393</ele>
        <time>2011-07-15T11:26:27Z</time>
      </trkpt>
      <trkpt lat="44.60364" lon="6.06319">
        <ele>1387.8</ele>
        <time>2011-07-15T11:27:03Z</time>
      </trkpt>
      <trkpt lat="44.60311" lon="6.06231">
        <ele>1399</ele>
        <time>2011-07-15T11:29:29Z</time>
      </trkpt>
      <trkpt lat="44.60229" lon="6.0621">
        <ele>1391</ele>
        <time>2011-07-15T11:29:42Z</time>
      </trkpt>
      <trkpt lat="44.60171" lon="6.0615">
        <ele>1402.4</ele>
        <time>2011-07-15T11:30:05Z</time>
      </trkpt>
      <trkpt lat="44.60316" lon="6.06163">
        <ele>1422.6</ele>
        <time>2011-07-15T11:31:24Z</time>
      </trkpt>
      <trkpt lat="44.60362" lon="6.06193">
        <ele>1423</ele>
        <time>2011-07-15T11:32:00Z</time>
      </trkpt>
      <trkpt lat="44.60475" lon="6.06176">
        <ele>1445</ele>
        <time>2011-07-15T11:33:21Z</time>
      </trkpt>
      <trkpt lat="44.605" lon="6.0615">
        <ele>1453.8</ele>
        <time>2011-07-15T11:33:43Z</time>
      </trkpt>
      <trkpt lat="44.6056" lon="6.06199">
        <ele>1457</ele>
        <time>2011-07-15T11:34:30Z</time>
      </trkpt>
      <trkpt lat="44.60582" lon="6.06253">
        <ele>1448.8</ele>
        <time>2011-07-15T11:35:03Z</time>
      </trkpt>
      <trkpt lat="44.60896" lon="6.06202">
        <ele>1488.4</ele>
        <time>2011-07-15T11:38:07Z</time>
      </trkpt>
      <trkpt lat="44.60947" lon="6.06154">
        <ele>1500.2</ele>
        <time>2011-07-15T11:38:39Z</time>
      </trkpt>
      <trkpt lat="44.60696" lon="6.06021">
        <ele>1525.8</ele>
        <time>2011-07-15T11:44:53Z</time>
      </trkpt>
      <trkpt lat="44.60638" lon="6.06026">
        <ele>1518.8</ele>
        <time>2011-07-15T11:45:21Z</time>
      </trkpt>
      <trkpt lat="44.60535" lon="6.05858">
        <ele>1538</ele>
        <time>2011-07-15T11:46:13Z</time>
      </trkpt>
      <trkpt lat="44.60496" lon="6.05824">
        <ele>1537.4</ele>
        <time>2011-07-15T11:46:28Z</time>
      </trkpt>
      <trkpt lat="44.60636" lon="6.05936">
        <ele>1538.4</ele>
        <time>2011-07-15T11:47:47Z</time>
      </trkpt>
      <trkpt lat="44.60677" lon="6.0587">
        <ele>1554.4</ele>
        <time>2011-07-15T11:48:21Z</time>
      </trkpt>
      <trkpt lat="44.60718" lon="6.0584">
        <ele>1558.6</ele>
        <time>2011-07-15T11:48:47Z</time>
      </trkpt>
      <trkpt lat="44.60744" lon="6.05863">
        <ele>1555.4</ele>
        <time>2011-07-15T11:49:03Z</time>
      </trkpt>
      <trkpt lat="44.60774" lon="6.05851">
        <ele>1556.6</ele>
        <time>2011-07-15T11:49:20Z</time>
      </trkpt>
      <trkpt lat="44.60783" lon="6.0582">
        <ele>1560.8</ele>
        <time>2011-07-15T11:49:33Z</time>
      </trkpt>
      <trkpt lat="44.60763" lon="6.0575">
        <ele>1570.2</ele>
        <time>2011-07-15T11:50:03Z</time>
      </trkpt>
      <trkpt lat="44.61107" lon="6.0549">
        <ele>1609.6</ele>
        <time>2011-07-15T11:55:39Z</time>
      </trkpt>
      <trkpt lat="44.61215" lon="6.05452">
        <ele>1609.2</ele>
        <time>2011-07-15T11:56:41Z</time>
      </trkpt>
      <trkpt lat="44.61259" lon="6.05373">
        <ele>1621.2</ele>
        <time>2011-07-15T11:57:24Z</time>
      </trkpt>
      <trkpt lat="44.61148" lon="6.05417">
        <ele>1625.8</ele>
        <time>2011-07-15T11:58:21Z</time>
      </trkpt>
      <trkpt lat="44.61138" lon="6.05397">
        <ele>1632</ele>
        <time>2011-07-15T11:58:33Z</time>
      </trkpt>
      <trkpt lat="44.61278" lon="6.05285">
        <ele>1642.2</ele>
        <time>2011-07-15T11:59:56Z</time>
      </trkpt>
      <trkpt lat="44.61368" lon="6.05266">
        <ele>1641.4</ele>
        <time>2011-07-15T12:00:40Z</time>
      </trkpt>
      <trkpt lat="44.61437" lon="6.05211">
        <ele>1659</ele>
        <time>2011-07-15T12:04:13Z</time>
      </trkpt>
      <trkpt lat="44.61596" lon="6.05174">
        <ele>1666.6</ele>
        <time>2011-07-15T12:05:34Z</time>
      </trkpt>
      <trkpt lat="44.61838" lon="6.05065">
        <ele>1684.8</ele>
        <time>2011-07-15T12:07:51Z</time>
      </trkpt>
      <trkpt lat="44.61777" lon="6.05033">
        <ele>1700.2</ele>
        <time>2011-07-15T12:09:34Z</time>
      </trkpt>
      <trkpt lat="44.61843" lon="6.05073">
        <ele>1682.6</ele>
        <time>2011-07-15T13:13:45Z</time>
      </trkpt>
      <trkpt lat="44.6197" lon="6.05019">
        <ele>1688</ele>
        <time>2011-07-15T13:15:14Z</time>
      </trkpt>
      <trkpt lat="44.62167" lon="6.04895">
        <ele>1693</ele>
        <time>2011-07-15T13:16:53Z</time>
      </trkpt>
      <trkpt lat="44.62206" lon="6.04827">
        <ele>1701.4</ele>
        <time>2011-07-15T13:17:43Z</time>
      </trkpt>
      <trkpt lat="44.6226" lon="6.04796">
        <ele>1695</ele>
        <time>2011-07-15T13:18:05Z</time>
      </trkpt>
      <trkpt lat="44.62308" lon="6.04696">
        <ele>1710.8</ele>
        <time>2011-07-15T13:20:08Z</time>
      </trkpt>
      <trkpt lat="44.62292" lon="6.04636">
        <ele>1706.2</ele>
        <time>2011-07-15T13:21:46Z</time>
      </trkpt>
      <trkpt lat="44.62326" lon="6.04407">
        <ele>1717.8</ele>
        <time>2011-07-15T13:23:09Z</time>
      </trkpt>
      <trkpt lat="44.62358" lon="6.04336">
        <ele>1728.8</ele>
        <time>2011-07-15T13:23:34Z</time>
      </trkpt>
      <trkpt lat="44.62354" lon="6.04109">
        <ele>1726</ele>
        <time>2011-07-15T13:24:36Z</time>
      </trkpt>
      <trkpt lat="44.62404" lon="6.03951">
        <ele>1738</ele>
        <time>2011-07-15T13:25:27Z</time>
      </trkpt>
      <trkpt lat="44.62387" lon="6.039">
        <ele>1737.2</ele>
        <time>2011-07-15T13:25:48Z</time>
      </trkpt>
      <trkpt lat="44.62402" lon="6.03837">
        <ele>1740.8</ele>
        <time>2011-07-15T13:26:38Z</time>
      </trkpt>
      <trkpt lat="44.62432" lon="6.03844">
        <ele>1737</ele>
        <time>2011-07-15T13:26:50Z</time>
      </trkpt>
      <trkpt lat="44.62473" lon="6.03899">
        <ele>1737</ele>
        <time>2011-07-15T13:27:04Z</time>
      </trkpt>
      <trkpt lat="44.62549" lon="6.03847">
        <ele>1731.4</ele>
        <time>2011-07-15T13:27:23Z</time>
      </trkpt>
      <trkpt lat="44.6262" lon="6.03634">
        <ele>1702.4</ele>
        <time>2011-07-15T13:28:13Z</time>
      </trkpt>
      <trkpt lat="44.62752" lon="6.03592">
        <ele>1701</ele>
        <time>2011-07-15T13:28:46Z</time>
      </trkpt>
      <trkpt lat="44.62799" lon="6.03506">
        <ele>1698.8</ele>
        <time>2011-07-15T13:29:03Z</time>
      </trkpt>
      <trkpt lat="44.62779" lon="6.03456">
        <ele>1683.2</ele>
        <time>2011-07-15T13:29:45Z</time>
      </trkpt>
      <trkpt lat="44.62788" lon="6.03424">
        <ele>1680.6</ele>
        <time>2011-07-15T13:29:52Z</time>
      </trkpt>
      <trkpt lat="44.62852" lon="6.03375">
        <ele>1689</ele>
        <time>2011-07-15T13:30:08Z</time>
      </trkpt>
      <trkpt lat="44.62877" lon="6.03282">
        <ele>1683.2</ele>
        <time>2011-07-15T13:30:21Z</time>
      </trkpt>
      <trkpt lat="44.62872" lon="6.03184">
        <ele>1671.2</ele>
        <time>2011-07-15T13:30:32Z</time>
      </trkpt>
      <trkpt lat="44.62916" lon="6.02995">
        <ele>1667.6</ele>
        <time>2011-07-15T13:30:56Z</time>
      </trkpt>
      <trkpt lat="44.62904" lon="6.02897">
        <ele>1661</ele>
        <time>2011-07-15T13:31:13Z</time>
      </trkpt>
      <trkpt lat="44.62933" lon="6.02653">
        <ele>1670.6</ele>
        <time>2011-07-15T13:31:53Z</time>
      </trkpt>
      <trkpt lat="44.62931" lon="6.02565">
        <ele>1669</ele>
        <time>2011-07-15T13:32:11Z</time>
      </trkpt>
      <trkpt lat="44.63014" lon="6.02434">
        <ele>1659.4</ele>
        <time>2011-07-15T13:32:34Z</time>
      </trkpt>
      <trkpt lat="44.63034" lon="6.02342">
        <ele>1650.2</ele>
        <time>2011-07-15T13:32:48Z</time>
      </trkpt>
      <trkpt lat="44.63034" lon="6.02261">
        <ele>1658.2</ele>
        <time>2011-07-15T13:32:58Z</time>
      </trkpt>
      <trkpt lat="44.63167" lon="6.02202">
        <ele>1634.4</ele>
        <time>2011-07-15T13:33:19Z</time>
      </trkpt>
      <trkpt lat="44.63197" lon="6.02156">
        <ele>1628.8</ele>
        <time>2011-07-15T13:33:25Z</time>
      </trkpt>
      <trkpt lat="44.63254" lon="6.01951">
        <ele>1611.2</ele>
        <time>2011-07-15T13:33:50Z</time>
      </trkpt>
      <trkpt lat="44.63247" lon="6.01892">
        <ele>1612</ele>
        <time>2011-07-15T13:33:58Z</time>
      </trkpt>
      <trkpt lat="44.63275" lon="6.01959">
        <ele>1600.4</ele>
        <time>2011-07-15T13:34:11Z</time>
      </trkpt>
      <trkpt lat="44.63275" lon="6.02011">
        <ele>1600.6</ele>
        <time>2011-07-15T13:34:18Z</time>
      </trkpt>
      <trkpt lat="44.63291" lon="6.01904">
        <ele>1590.6</ele>
        <time>2011-07-15T13:34:40Z</time>
      </trkpt>
      <trkpt lat="44.63311" lon="6.01934">
        <ele>1580.8</ele>
        <time>2011-07-15T13:34:47Z</time>
      </trkpt>
      <trkpt lat="44.63308" lon="6.01974">
        <ele>1583</ele>
        <time>2011-07-15T13:34:53Z</time>
      </trkpt>
      <trkpt lat="44.63356" lon="6.01921">
        <ele>1563.6</ele>
        <time>2011-07-15T13:35:08Z</time>
      </trkpt>
      <trkpt lat="44.63399" lon="6.01938">
        <ele>1554</ele>
        <time>2011-07-15T13:35:17Z</time>
      </trkpt>
      <trkpt lat="44.63376" lon="6.01898">
        <ele>1557.2</ele>
        <time>2011-07-15T13:35:27Z</time>
      </trkpt>
      <trkpt lat="44.63484" lon="6.01915">
        <ele>1539.8</ele>
        <time>2011-07-15T13:35:49Z</time>
      </trkpt>
      <trkpt lat="44.63492" lon="6.01958">
        <ele>1535</ele>
        <time>2011-07-15T13:35:57Z</time>
      </trkpt>
      <trkpt lat="44.63515" lon="6.01891">
        <ele>1528</ele>
        <time>2011-07-15T13:36:09Z</time>
      </trkpt>
      <trkpt lat="44.63483" lon="6.01846">
        <ele>1526</ele>
        <time>2011-07-15T13:36:18Z</time>
      </trkpt>
      <trkpt lat="44.63573" lon="6.01889">
        <ele>1511</ele>
        <time>2011-07-15T13:36:34Z</time>
      </trkpt>
      <trkpt lat="44.63591" lon="6.01943">
        <ele>1505.8</ele>
        <time>2011-07-15T13:36:42Z</time>
      </trkpt>
      <trkpt lat="44.63614" lon="6.01898">
        <ele>1496</ele>
        <time>2011-07-15T13:36:50Z</time>
      </trkpt>
      <trkpt lat="44.63614" lon="6.01863">
        <ele>1491.6</ele>
        <time>2011-07-15T13:36:54Z</time>
      </trkpt>
      <trkpt lat="44.63512" lon="6.01791">
        <ele>1507.4</ele>
        <time>2011-07-15T13:37:09Z</time>
      </trkpt>
      <trkpt lat="44.63587" lon="6.01795">
        <ele>1486.6</ele>
        <time>2011-07-15T13:37:22Z</time>
      </trkpt>
      <trkpt lat="44.63711" lon="6.01859">
        <ele>1456</ele>
        <time>2011-07-15T13:37:40Z</time>
      </trkpt>
      <trkpt lat="44.63677" lon="6.01782">
        <ele>1457</ele>
        <time>2011-07-15T13:37:53Z</time>
      </trkpt>
      <trkpt lat="44.63763" lon="6.01821">
        <ele>1441</ele>
        <time>2011-07-15T13:38:09Z</time>
      </trkpt>
      <trkpt lat="44.63768" lon="6.0187">
        <ele>1435.4</ele>
        <time>2011-07-15T13:38:16Z</time>
      </trkpt>
      <trkpt lat="44.63806" lon="6.01816">
        <ele>1428.6</ele>
        <time>2011-07-15T13:38:27Z</time>
      </trkpt>
      <trkpt lat="44.6375" lon="6.0169">
        <ele>1421</ele>
        <time>2011-07-15T13:38:41Z</time>
      </trkpt>
      <trkpt lat="44.63732" lon="6.01682">
        <ele>1424</ele>
        <time>2011-07-15T13:38:45Z</time>
      </trkpt>
      <trkpt lat="44.63822" lon="6.01695">
        <ele>1407.8</ele>
        <time>2011-07-15T13:39:01Z</time>
      </trkpt>
      <trkpt lat="44.63916" lon="6.0179">
        <ele>1385.2</ele>
        <time>2011-07-15T13:39:15Z</time>
      </trkpt>
      <trkpt lat="44.63911" lon="6.01831">
        <ele>1390</ele>
        <time>2011-07-15T13:39:19Z</time>
      </trkpt>
      <trkpt lat="44.63839" lon="6.01956">
        <ele>1402.6</ele>
        <time>2011-07-15T13:39:33Z</time>
      </trkpt>
      <trkpt lat="44.63911" lon="6.01979">
        <ele>1390.4</ele>
        <time>2011-07-15T13:39:45Z</time>
      </trkpt>
      <trkpt lat="44.64109" lon="6.01807">
        <ele>1349.4</ele>
        <time>2011-07-15T13:40:07Z</time>
      </trkpt>
      <trkpt lat="44.64225" lon="6.01832">
        <ele>1333.2</ele>
        <time>2011-07-15T13:40:18Z</time>
      </trkpt>
      <trkpt lat="44.64267" lon="6.01932">
        <ele>1331.4</ele>
        <time>2011-07-15T13:40:28Z</time>
      </trkpt>
      <trkpt lat="44.6426" lon="6.02012">
        <ele>1330.6</ele>
        <time>2011-07-15T13:40:39Z</time>
      </trkpt>
      <trkpt lat="44.64283" lon="6.02012">
        <ele>1328.2</ele>
        <time>2011-07-15T13:41:51Z</time>
      </trkpt>
      <trkpt lat="44.64329" lon="6.01915">
        <ele>1322.6</ele>
        <time>2011-07-15T13:42:54Z</time>
      </trkpt>
      <trkpt lat="44.64315" lon="6.01836">
        <ele>1325.8</ele>
        <time>2011-07-15T13:43:21Z</time>
      </trkpt>
      <trkpt lat="44.64274" lon="6.0175">
        <ele>1319.4</ele>
        <time>2011-07-15T13:43:39Z</time>
      </trkpt>
      <trkpt lat="44.64257" lon="6.01592">
        <ele>1312</ele>
        <time>2011-07-15T13:44:17Z</time>
      </trkpt>
      <trkpt lat="44.64275" lon="6.01486">
        <ele>1315.4</ele>
        <time>2011-07-15T13:44:45Z</time>
      </trkpt>
      <trkpt lat="44.6424" lon="6.01469">
        <ele>1314.6</ele>
        <time>2011-07-15T13:44:58Z</time>
      </trkpt>
      <trkpt lat="44.64203" lon="6.01412">
        <ele>1324.2</ele>
        <time>2011-07-15T13:45:16Z</time>
      </trkpt>
      <trkpt lat="44.64221" lon="6.01235">
        <ele>1317.4</ele>
        <time>2011-07-15T13:46:14Z</time>
      </trkpt>
      <trkpt lat="44.64134" lon="6.01169">
        <ele>1329</ele>
        <time>2011-07-15T13:47:22Z</time>
      </trkpt>
      <trkpt lat="44.64136" lon="6.01099">
        <ele>1324</ele>
        <time>2011-07-15T13:47:58Z</time>
      </trkpt>
      <trkpt lat="44.64102" lon="6.01115">
        <ele>1332</ele>
        <time>2011-07-15T13:48:56Z</time>
      </trkpt>
      <trkpt lat="44.64123" lon="6.01078">
        <ele>1323.2</ele>
        <time>2011-07-15T13:49:35Z</time>
      </trkpt>
      <trkpt lat="44.64114" lon="6.01015">
        <ele>1316</ele>
        <time>2011-07-15T13:49:54Z</time>
      </trkpt>
      <trkpt lat="44.64072" lon="6.00955">
        <ele>1305.8</ele>
        <time>2011-07-15T13:50:16Z</time>
      </trkpt>
      <trkpt lat="44.64038" lon="6.00947">
        <ele>1310</ele>
        <time>2011-07-15T13:50:25Z</time>
      </trkpt>
      <trkpt lat="44.6402" lon="6.00919">
        <ele>1301.6</ele>
        <time>2011-07-15T13:50:34Z</time>
      </trkpt>
      <trkpt lat="44.64033" lon="6.00881">
        <ele>1307</ele>
        <time>2011-07-15T13:51:12Z</time>
      </trkpt>
      <trkpt lat="44.64" lon="6.00887">
        <ele>1299.4</ele>
        <time>2011-07-15T13:52:30Z</time>
      </trkpt>
      <trkpt lat="44.64025" lon="6.00876">
        <ele>1305.6</ele>
        <time>2011-07-15T13:53:11Z</time>
      </trkpt>
      <trkpt lat="44.6404" lon="6.00746">
        <ele>1309.6</ele>
        <time>2011-07-15T13:54:41Z</time>
      </trkpt>
      <trkpt lat="44.64008" lon="6.00686">
        <ele>1289.6</ele>
        <time>2011-07-15T13:55:04Z</time>
      </trkpt>
      <trkpt lat="44.63924" lon="6.00631">
        <ele>1288</ele>
        <time>2011-07-15T13:55:33Z</time>
      </trkpt>
      <trkpt lat="44.63871" lon="6.00639">
        <ele>1294.8</ele>
        <time>2011-07-15T13:55:52Z</time>
      </trkpt>
      <trkpt lat="44.63849" lon="6.00576">
        <ele>1286.6</ele>
        <time>2011-07-15T13:56:12Z</time>
      </trkpt>
      <trkpt lat="44.6386" lon="6.00564">
        <ele>1289</ele>
        <time>2011-07-15T13:56:18Z</time>
      </trkpt>
      <trkpt lat="44.63832" lon="6.00529">
        <ele>1285.8</ele>
        <time>2011-07-15T13:56:36Z</time>
      </trkpt>
      <trkpt lat="44.63839" lon="6.00448">
        <ele>1284.6</ele>
        <time>2011-07-15T13:57:02Z</time>
      </trkpt>
      <trkpt lat="44.63824" lon="6.0038">
        <ele>1279.4</ele>
        <time>2011-07-15T13:57:23Z</time>
      </trkpt>
      <trkpt lat="44.63727" lon="6.00244">
        <ele>1276.6</ele>
        <time>2011-07-15T13:58:37Z</time>
      </trkpt>
      <trkpt lat="44.6373" lon="6.00221">
        <ele>1273</ele>
        <time>2011-07-15T13:58:51Z</time>
      </trkpt>
      <trkpt lat="44.63726" lon="6.00244">
        <ele>1277.4</ele>
        <time>2011-07-15T14:00:08Z</time>
      </trkpt>
      <trkpt lat="44.63717" lon="6.00183">
        <ele>1270.4</ele>
        <time>2011-07-15T14:02:18Z</time>
      </trkpt>
      <trkpt lat="44.63733" lon="6.0017">
        <ele>1267</ele>
        <time>2011-07-15T14:02:45Z</time>
      </trkpt>
      <trkpt lat="44.63644" lon="6.00107">
        <ele>1275.6</ele>
        <time>2011-07-15T14:03:14Z</time>
      </trkpt>
      <trkpt lat="44.63625" lon="6.00012">
        <ele>1271.4</ele>
        <time>2011-07-15T14:04:00Z</time>
      </trkpt>
      <trkpt lat="44.63649" lon="6.00002">
        <ele>1269.4</ele>
        <time>2011-07-15T14:04:23Z</time>
      </trkpt>
      <trkpt lat="44.63672" lon="5.99943">
        <ele>1276</ele>
        <time>2011-07-15T14:05:02Z</time>
      </trkpt>
      <trkpt lat="44.63645" lon="5.99959">
        <ele>1269.4</ele>
        <time>2011-07-15T14:05:24Z</time>
      </trkpt>
      <trkpt lat="44.63507" lon="5.99894">
        <ele>1262.4</ele>
        <time>2011-07-15T14:06:32Z</time>
      </trkpt>
      <trkpt lat="44.63524" lon="5.99842">
        <ele>1256.6</ele>
        <time>2011-07-15T14:06:52Z</time>
      </trkpt>
      <trkpt lat="44.63484" lon="5.99824">
        <ele>1259.2</ele>
        <time>2011-07-15T14:07:04Z</time>
      </trkpt>
      <trkpt lat="44.63489" lon="5.99803">
        <ele>1260.6</ele>
        <time>2011-07-15T14:07:11Z</time>
      </trkpt>
      <trkpt lat="44.63448" lon="5.99786">
        <ele>1270.4</ele>
        <time>2011-07-15T14:07:24Z</time>
      </trkpt>
      <trkpt lat="44.63443" lon="5.9975">
        <ele>1265.8</ele>
        <time>2011-07-15T14:07:35Z</time>
      </trkpt>
      <trkpt lat="44.634" lon="5.99698">
        <ele>1272.4</ele>
        <time>2011-07-15T14:08:18Z</time>
      </trkpt>
      <trkpt lat="44.63397" lon="5.99635">
        <ele>1271.6</ele>
        <time>2011-07-15T14:08:52Z</time>
      </trkpt>
      <trkpt lat="44.63446" lon="5.99592">
        <ele>1290.8</ele>
        <time>2011-07-15T14:10:14Z</time>
      </trkpt>
      <trkpt lat="44.63403" lon="5.99556">
        <ele>1275.2</ele>
        <time>2011-07-15T14:10:51Z</time>
      </trkpt>
      <trkpt lat="44.63345" lon="5.9955">
        <ele>1264.6</ele>
        <time>2011-07-15T14:11:04Z</time>
      </trkpt>
      <trkpt lat="44.63339" lon="5.99496">
        <ele>1254.4</ele>
        <time>2011-07-15T14:11:55Z</time>
      </trkpt>
      <trkpt lat="44.63324" lon="5.99492">
        <ele>1260</ele>
        <time>2011-07-15T14:12:20Z</time>
      </trkpt>
      <trkpt lat="44.63356" lon="5.99477">
        <ele>1258.8</ele>
        <time>2011-07-15T14:12:45Z</time>
      </trkpt>
      <trkpt lat="44.63353" lon="5.99373">
        <ele>1253.8</ele>
        <time>2011-07-15T14:13:19Z</time>
      </trkpt>
      <trkpt lat="44.63296" lon="5.9932">
        <ele>1260.8</ele>
        <time>2011-07-15T14:13:46Z</time>
      </trkpt>
      <trkpt lat="44.6329" lon="5.99152">
        <ele>1252</ele>
        <time>2011-07-15T14:14:33Z</time>
      </trkpt>
      <trkpt lat="44.63247" lon="5.99099">
        <ele>1243.4</ele>
        <time>2011-07-15T14:14:52Z</time>
      </trkpt>
      <trkpt lat="44.63273" lon="5.98999">
        <ele>1245</ele>
        <time>2011-07-15T14:15:18Z</time>
      </trkpt>
      <trkpt lat="44.63259" lon="5.98787">
        <ele>1225.4</ele>
        <time>2011-07-15T14:16:12Z</time>
      </trkpt>
      <trkpt lat="44.63209" lon="5.98735">
        <ele>1231.4</ele>
        <time>2011-07-15T14:16:32Z</time>
      </trkpt>
      <trkpt lat="44.63187" lon="5.98644">
        <ele>1219.6</ele>
        <time>2011-07-15T14:17:00Z</time>
      </trkpt>
      <trkpt lat="44.63222" lon="5.98619">
        <ele>1225.8</ele>
        <time>2011-07-15T14:17:40Z</time>
      </trkpt>
      <trkpt lat="44.6318" lon="5.98634">
        <ele>1217.4</ele>
        <time>2011-07-15T14:18:13Z</time>
      </trkpt>
      <trkpt lat="44.63192" lon="5.98619">
        <ele>1218.6</ele>
        <time>2011-07-15T14:18:34Z</time>
      </trkpt>
      <trkpt lat="44.63152" lon="5.98579">
        <ele>1207</ele>
        <time>2011-07-15T14:18:53Z</time>
      </trkpt>
      <trkpt lat="44.63023" lon="5.98587">
        <ele>1207.8</ele>
        <time>2011-07-15T14:19:22Z</time>
      </trkpt>
      <trkpt lat="44.62799" lon="5.9848">
        <ele>1206.6</ele>
        <time>2011-07-15T14:20:47Z</time>
      </trkpt>
      <trkpt lat="44.6271" lon="5.98372">
        <ele>1197</ele>
        <time>2011-07-15T14:21:47Z</time>
      </trkpt>
      <trkpt lat="44.62684" lon="5.9837">
        <ele>1200.6</ele>
        <time>2011-07-15T14:22:09Z</time>
      </trkpt>
      <trkpt lat="44.62695" lon="5.98365">
        <ele>1197.6</ele>
        <time>2011-07-15T14:22:36Z</time>
      </trkpt>
      <trkpt lat="44.62625" lon="5.98277">
        <ele>1189.2</ele>
        <time>2011-07-15T14:23:06Z</time>
      </trkpt>
      <trkpt lat="44.62462" lon="5.98219">
        <ele>1185.6</ele>
        <time>2011-07-15T14:23:42Z</time>
      </trkpt>
      <trkpt lat="44.62305" lon="5.98268">
        <ele>1174.4</ele>
        <time>2011-07-15T14:24:46Z</time>
      </trkpt>
      <trkpt lat="44.6224" lon="5.98311">
        <ele>1179.8</ele>
        <time>2011-07-15T14:25:46Z</time>
      </trkpt>
      <trkpt lat="44.62141" lon="5.98268">
        <ele>1161</ele>
        <time>2011-07-15T14:27:21Z</time>
      </trkpt>
      <trkpt lat="44.62081" lon="5.98316">
        <ele>1154.8</ele>
        <time>2011-07-15T14:27:46Z</time>
      </trkpt>
      <trkpt lat="44.62097" lon="5.98338">
        <ele>1158.8</ele>
        <time>2011-07-15T14:28:09Z</time>
      </trkpt>
      <trkpt lat="44.62015" lon="5.98414">
        <ele>1158.2</ele>
        <time>2011-07-15T14:30:34Z</time>
      </trkpt>
      <trkpt lat="44.61966" lon="5.98422">
        <ele>1153</ele>
        <time>2011-07-15T14:31:04Z</time>
      </trkpt>
      <trkpt lat="44.61824" lon="5.98503">
        <ele>1143.8</ele>
        <time>2011-07-15T14:33:49Z</time>
      </trkpt>
      <trkpt lat="44.61763" lon="5.98624">
        <ele>1154.2</ele>
        <time>2011-07-15T14:34:35Z</time>
      </trkpt>
      <trkpt lat="44.617" lon="5.98635">
        <ele>1148.2</ele>
        <time>2011-07-15T14:35:20Z</time>
      </trkpt>
      <trkpt lat="44.61575" lon="5.98702">
        <ele>1149.2</ele>
        <time>2011-07-15T14:36:26Z</time>
      </trkpt>
      <trkpt lat="44.6149" lon="5.98838">
        <ele>1158.6</ele>
        <time>2011-07-15T14:37:26Z</time>
      </trkpt>
      <trkpt lat="44.61496" lon="5.98858">
        <ele>1160</ele>
        <time>2011-07-15T14:37:42Z</time>
      </trkpt>
      <trkpt lat="44.61457" lon="5.98792">
        <ele>1155</ele>
        <time>2011-07-15T14:38:41Z</time>
      </trkpt>
      <trkpt lat="44.61433" lon="5.9878">
        <ele>1152.8</ele>
        <time>2011-07-15T14:38:58Z</time>
      </trkpt>
      <trkpt lat="44.61376" lon="5.98806">
        <ele>1171.2</ele>
        <time>2011-07-15T14:44:50Z</time>
      </trkpt>
      <trkpt lat="44.61322" lon="5.98802">
        <ele>1182.8</ele>
        <time>2011-07-15T14:45:35Z</time>
      </trkpt>
      <trkpt lat="44.61298" lon="5.98772">
        <ele>1171.6</ele>
        <time>2011-07-15T14:48:00Z</time>
      </trkpt>
      <trkpt lat="44.61231" lon="5.98745">
        <ele>1165.6</ele>
        <time>2011-07-15T14:48:47Z</time>
      </trkpt>
      <trkpt lat="44.61157" lon="5.9879">
        <ele>1183</ele>
        <time>2011-07-15T14:50:54Z</time>
      </trkpt>
      <trkpt lat="44.61122" lon="5.9879">
        <ele>1167.4</ele>
        <time>2011-07-15T14:51:21Z</time>
      </trkpt>
      <trkpt lat="44.61084" lon="5.98998">
        <ele>1222.8</ele>
        <time>2011-07-15T14:54:28Z</time>
      </trkpt>
      <trkpt lat="44.60994" lon="5.99072">
        <ele>1211.4</ele>
        <time>2011-07-15T14:57:17Z</time>
      </trkpt>
      <trkpt lat="44.60973" lon="5.99141">
        <ele>1227.8</ele>
        <time>2011-07-15T14:58:17Z</time>
      </trkpt>
      <trkpt lat="44.60856" lon="5.9936">
        <ele>1251.4</ele>
        <time>2011-07-15T15:01:25Z</time>
      </trkpt>
      <trkpt lat="44.60817" lon="5.99383">
        <ele>1240.8</ele>
        <time>2011-07-15T15:01:51Z</time>
      </trkpt>
      <trkpt lat="44.6075" lon="5.99492">
        <ele>1266.6</ele>
        <time>2011-07-15T15:02:47Z</time>
      </trkpt>
      <trkpt lat="44.60686" lon="5.99554">
        <ele>1288</ele>
        <time>2011-07-15T15:03:50Z</time>
      </trkpt>
      <trkpt lat="44.6072" lon="5.99547">
        <ele>1293.6</ele>
        <time>2011-07-15T15:04:30Z</time>
      </trkpt>
      <trkpt lat="44.6068" lon="5.99585">
        <ele>1319.2</ele>
        <time>2011-07-15T15:05:40Z</time>
      </trkpt>
      <trkpt lat="44.60704" lon="5.99575">
        <ele>1314.8</ele>
        <time>2011-07-15T15:06:12Z</time>
      </trkpt>
      <trkpt lat="44.60684" lon="5.99603">
        <ele>1326.6</ele>
        <time>2011-07-15T15:10:28Z</time>
      </trkpt>
      <trkpt lat="44.60618" lon="5.99569">
        <ele>1267.2</ele>
        <time>2011-07-15T15:11:10Z</time>
      </trkpt>
      <trkpt lat="44.60675" lon="5.99602">
        <ele>1324.2</ele>
        <time>2011-07-15T15:12:03Z</time>
      </trkpt>
      <trkpt lat="44.60625" lon="5.99573">
        <ele>1275.4</ele>
        <time>2011-07-15T15:12:31Z</time>
      </trkpt>
      <trkpt lat="44.60592" lon="5.99585">
        <ele>1263.4</ele>
        <time>2011-07-15T15:12:48Z</time>
      </trkpt>
      <trkpt lat="44.60522" lon="5.997">
        <ele>1257.6</ele>
        <time>2011-07-15T15:13:51Z</time>
      </trkpt>
      <trkpt lat="44.60524" lon="5.99776">
        <ele>1271.8</ele>
        <time>2011-07-15T15:14:27Z</time>
      </trkpt>
      <trkpt lat="44.6054" lon="5.99796">
        <ele>1284.2</ele>
        <time>2011-07-15T15:14:38Z</time>
      </trkpt>
      <trkpt lat="44.6044" lon="5.99887">
        <ele>1255.2</ele>
        <time>2011-07-15T15:18:26Z</time>
      </trkpt>
      <trkpt lat="44.60457" lon="5.99923">
        <ele>1274.8</ele>
        <time>2011-07-15T15:18:59Z</time>
      </trkpt>
      <trkpt lat="44.60437" lon="5.99959">
        <ele>1269.6</ele>
        <time>2011-07-15T15:19:16Z</time>
      </trkpt>
      <trkpt lat="44.60422" lon="6.00055">
        <ele>1279.8</ele>
        <time>2011-07-15T15:19:41Z</time>
      </trkpt>
      <trkpt lat="44.60348" lon="6.00035">
        <ele>1256.8</ele>
        <time>2011-07-15T15:20:58Z</time>
      </trkpt>
      <trkpt lat="44.60261" lon="6.0011">
        <ele>1250.2</ele>
        <time>2011-07-15T15:21:38Z</time>
      </trkpt>
      <trkpt lat="44.6021" lon="6.00129">
        <ele>1239.6</ele>
        <time>2011-07-15T15:21:59Z</time>
      </trkpt>
      <trkpt lat="44.60102" lon="6.00233">
        <ele>1225.4</ele>
        <time>2011-07-15T15:22:37Z</time>
      </trkpt>
      <trkpt lat="44.60054" lon="6.00365">
        <ele>1218</ele>
        <time>2011-07-15T15:23:03Z</time>
      </trkpt>
      <trkpt lat="44.60056" lon="6.00405">
        <ele>1225.2</ele>
        <time>2011-07-15T15:23:27Z</time>
      </trkpt>
      <trkpt lat="44.60005" lon="6.00397">
        <ele>1204</ele>
        <time>2011-07-15T15:25:49Z</time>
      </trkpt>
      <trkpt lat="44.59936" lon="6.00521">
        <ele>1201.8</ele>
        <time>2011-07-15T15:26:52Z</time>
      </trkpt>
      <trkpt lat="44.59902" lon="6.00501">
        <ele>1185.4</ele>
        <time>2011-07-15T15:27:02Z</time>
      </trkpt>
      <trkpt lat="44.5985" lon="6.00513">
        <ele>1179.8</ele>
        <time>2011-07-15T15:27:23Z</time>
      </trkpt>
      <trkpt lat="44.59791" lon="6.00568">
        <ele>1179</ele>
        <time>2011-07-15T15:27:40Z</time>
      </trkpt>
      <trkpt lat="44.59787" lon="6.00624">
        <ele>1194.2</ele>
        <time>2011-07-15T15:27:57Z</time>
      </trkpt>
      <trkpt lat="44.59751" lon="6.00636">
        <ele>1187</ele>
        <time>2011-07-15T15:28:12Z</time>
      </trkpt>
      <trkpt lat="44.59642" lon="6.00743">
        <ele>1196</ele>
        <time>2011-07-15T15:29:33Z</time>
      </trkpt>
      <trkpt lat="44.5956" lon="6.00737">
        <ele>1181</ele>
        <time>2011-07-15T15:31:15Z</time>
      </trkpt>
      <trkpt lat="44.59484" lon="6.00693">
        <ele>1177.4</ele>
        <time>2011-07-15T15:31:27Z</time>
      </trkpt>
      <trkpt lat="44.59288" lon="6.00645">
        <ele>1175.6</ele>
        <time>2011-07-15T15:32:21Z</time>
      </trkpt>
      <trkpt lat="44.59225" lon="6.00582">
        <ele>1175.2</ele>
        <time>2011-07-15T15:32:42Z</time>
      </trkpt>
      <trkpt lat="44.59181" lon="6.00582">
        <ele>1171</ele>
        <time>2011-07-15T15:32:49Z</time>
      </trkpt>
      <trkpt lat="44.59165" lon="6.006">
        <ele>1167.6</ele>
        <time>2011-07-15T15:32:53Z</time>
      </trkpt>
      <trkpt lat="44.59123" lon="6.00518">
        <ele>1151</ele>
        <time>2011-07-15T15:33:05Z</time>
      </trkpt>
      <trkpt lat="44.58999" lon="6.00496">
        <ele>1146.8</ele>
        <time>2011-07-15T15:33:34Z</time>
      </trkpt>
      <trkpt lat="44.59086" lon="6.00591">
        <ele>1152</ele>
        <time>2011-07-15T15:33:58Z</time>
      </trkpt>
      <trkpt lat="44.59106" lon="6.00697">
        <ele>1139.4</ele>
        <time>2011-07-15T15:34:09Z</time>
      </trkpt>
      <trkpt lat="44.59198" lon="6.00798">
        <ele>1134.8</ele>
        <time>2011-07-15T15:34:37Z</time>
      </trkpt>
      <trkpt lat="44.5922" lon="6.00961">
        <ele>1123</ele>
        <time>2011-07-15T15:34:51Z</time>
      </trkpt>
      <trkpt lat="44.59249" lon="6.0103">
        <ele>1126.2</ele>
        <time>2011-07-15T15:34:58Z</time>
      </trkpt>
      <trkpt lat="44.59157" lon="6.00945">
        <ele>1117.8</ele>
        <time>2011-07-15T15:35:24Z</time>
      </trkpt>
      <trkpt lat="44.59096" lon="6.00958">
        <ele>1118.4</ele>
        <time>2011-07-15T15:35:40Z</time>
      </trkpt>
      <trkpt lat="44.5898" lon="6.01043">
        <ele>1127.2</ele>
        <time>2011-07-15T15:36:24Z</time>
      </trkpt>
      <trkpt lat="44.5896" lon="6.0114">
        <ele>1142.8</ele>
        <time>2011-07-15T15:36:52Z</time>
      </trkpt>
      <trkpt lat="44.58932" lon="6.01187">
        <ele>1147.4</ele>
        <time>2011-07-15T15:37:10Z</time>
      </trkpt>
      <trkpt lat="44.58912" lon="6.01186">
        <ele>1148</ele>
        <time>2011-07-15T15:37:18Z</time>
      </trkpt>
      <trkpt lat="44.58841" lon="6.01088">
        <ele>1155.8</ele>
        <time>2011-07-15T15:37:58Z</time>
      </trkpt>
      <trkpt lat="44.58837" lon="6.00986">
        <ele>1149.2</ele>
        <time>2011-07-15T15:38:24Z</time>
      </trkpt>
      <trkpt lat="44.58743" lon="6.00946">
        <ele>1155</ele>
        <time>2011-07-15T15:39:54Z</time>
      </trkpt>
      <trkpt lat="44.58684" lon="6.00988">
        <ele>1171.4</ele>
        <time>2011-07-15T15:40:15Z</time>
      </trkpt>
      <trkpt lat="44.58667" lon="6.00976">
        <ele>1173</ele>
        <time>2011-07-15T15:40:22Z</time>
      </trkpt>
      <trkpt lat="44.58669" lon="6.00691">
        <ele>1172.4</ele>
        <time>2011-07-15T15:41:36Z</time>
      </trkpt>
      <trkpt lat="44.58594" lon="6.00545">
        <ele>1174.4</ele>
        <time>2011-07-15T15:42:24Z</time>
      </trkpt>
      <trkpt lat="44.58382" lon="6.00343">
        <ele>1194.8</ele>
        <time>2011-07-15T15:46:09Z</time>
      </trkpt>
      <trkpt lat="44.58297" lon="6.00329">
        <ele>1199.8</ele>
        <time>2011-07-15T15:46:29Z</time>
      </trkpt>
      <trkpt lat="44.58233" lon="6.0027">
        <ele>1190.6</ele>
        <time>2011-07-15T15:46:42Z</time>
      </trkpt>
      <trkpt lat="44.58217" lon="6.00197">
        <ele>1172.2</ele>
        <time>2011-07-15T15:46:52Z</time>
      </trkpt>
      <trkpt lat="44.58254" lon="6.00167">
        <ele>1157.6</ele>
        <time>2011-07-15T15:47:15Z</time>
      </trkpt>
      <trkpt lat="44.58273" lon="6.00186">
        <ele>1156.8</ele>
        <time>2011-07-15T15:47:23Z</time>
      </trkpt>
      <trkpt lat="44.58328" lon="6.00174">
        <ele>1137</ele>
        <time>2011-07-15T15:47:40Z</time>
      </trkpt>
      <trkpt lat="44.58345" lon="6.00054">
        <ele>1104.8</ele>
        <time>2011-07-15T15:47:56Z</time>
      </trkpt>
      <trkpt lat="44.584" lon="6.00029">
        <ele>1091.6</ele>
        <time>2011-07-15T15:48:06Z</time>
      </trkpt>
      <trkpt lat="44.58495" lon="5.99919">
        <ele>1047.6</ele>
        <time>2011-07-15T15:50:02Z</time>
      </trkpt>
      <trkpt lat="44.58498" lon="5.99851">
        <ele>1032.8</ele>
        <time>2011-07-15T15:53:01Z</time>
      </trkpt>
      <trkpt lat="44.58445" lon="5.99859">
        <ele>1035</ele>
        <time>2011-07-15T15:53:22Z</time>
      </trkpt>
      <trkpt lat="44.58482" lon="5.99783">
        <ele>1023.8</ele>
        <time>2011-07-15T15:54:11Z</time>
      </trkpt>
      <trkpt lat="44.58411" lon="5.99598">
        <ele>1029.6</ele>
        <time>2011-07-15T16:00:11Z</time>
      </trkpt>
      <trkpt lat="44.58359" lon="5.99544">
        <ele>1023</ele>
        <time>2011-07-15T16:00:26Z</time>
      </trkpt>
      <trkpt lat="44.58337" lon="5.99486">
        <ele>1023.4</ele>
        <time>2011-07-15T16:00:45Z</time>
      </trkpt>
      <trkpt lat="44.58336" lon="5.99366">
        <ele>1035.6</ele>
        <time>2011-07-15T16:01:46Z</time>
      </trkpt>
      <trkpt lat="44.58323" lon="5.99334">
        <ele>1037</ele>
        <time>2011-07-15T16:02:32Z</time>
      </trkpt>
      <trkpt lat="44.58275" lon="5.99342">
        <ele>1031.4</ele>
        <time>2011-07-15T16:03:14Z</time>
      </trkpt>
      <trkpt lat="44.58225" lon="5.99404">
        <ele>1018.6</ele>
        <time>2011-07-15T16:03:34Z</time>
      </trkpt>
      <trkpt lat="44.58173" lon="5.99432">
        <ele>1010.6</ele>
        <time>2011-07-15T16:03:43Z</time>
      </trkpt>
      <trkpt lat="44.58082" lon="5.99424">
        <ele>1004.6</ele>
        <time>2011-07-15T16:04:04Z</time>
      </trkpt>
      <trkpt lat="44.58032" lon="5.99392">
        <ele>1005.4</ele>
        <time>2011-07-15T16:04:16Z</time>
      </trkpt>
      <trkpt lat="44.58033" lon="5.99355">
        <ele>1006.8</ele>
        <time>2011-07-15T16:04:25Z</time>
      </trkpt>
      <trkpt lat="44.58003" lon="5.99327">
        <ele>1006.4</ele>
        <time>2011-07-15T16:04:36Z</time>
      </trkpt>
      <trkpt lat="44.57948" lon="5.99328">
        <ele>1003.6</ele>
        <time>2011-07-15T16:04:54Z</time>
      </trkpt>
      <trkpt lat="44.57852" lon="5.99281">
        <ele>1000.4</ele>
        <time>2011-07-15T16:05:33Z</time>
      </trkpt>
      <trkpt lat="44.57832" lon="5.9919">
        <ele>999</ele>
        <time>2011-07-15T16:05:55Z</time>
      </trkpt>
      <trkpt lat="44.57758" lon="5.99133">
        <ele>995.8</ele>
        <time>2011-07-15T16:06:45Z</time>
      </trkpt>
      <trkpt lat="44.57716" lon="5.99063">
        <ele>995</ele>
        <time>2011-07-15T16:07:06Z</time>
      </trkpt>
      <trkpt lat="44.5769" lon="5.99091">
        <ele>998</ele>
        <time>2011-07-15T16:07:31Z</time>
      </trkpt>
      <trkpt lat="44.57657" lon="5.9905">
        <ele>995.6</ele>
        <time>2011-07-15T16:07:51Z</time>
      </trkpt>
      <trkpt lat="44.57571" lon="5.99029">
        <ele>1000.2</ele>
        <time>2011-07-15T16:08:18Z</time>
      </trkpt>
      <trkpt lat="44.57464" lon="5.9906">
        <ele>1013.4</ele>
        <time>2011-07-15T16:09:54Z</time>
      </trkpt>
      <trkpt lat="44.57454" lon="5.98971">
        <ele>1002.8</ele>
        <time>2011-07-15T16:10:13Z</time>
      </trkpt>
      <trkpt lat="44.57415" lon="5.98853">
        <ele>990.8</ele>
        <time>2011-07-15T16:10:27Z</time>
      </trkpt>
      <trkpt lat="44.57315" lon="5.98662">
        <ele>986.2</ele>
        <time>2011-07-15T16:11:09Z</time>
      </trkpt>
      <trkpt lat="44.57263" lon="5.98634">
        <ele>994.2</ele>
        <time>2011-07-15T16:11:29Z</time>
      </trkpt>
      <trkpt lat="44.57198" lon="5.98444">
        <ele>990.8</ele>
        <time>2011-07-15T16:12:21Z</time>
      </trkpt>
      <trkpt lat="44.57224" lon="5.98426">
        <ele>984.8</ele>
        <time>2011-07-15T16:13:23Z</time>
      </trkpt>
      <trkpt lat="44.57187" lon="5.98186">
        <ele>976.8</ele>
        <time>2011-07-15T16:15:04Z</time>
      </trkpt>
      <trkpt lat="44.57127" lon="5.98079">
        <ele>973.6</ele>
        <time>2011-07-15T16:15:33Z</time>
      </trkpt>
      <trkpt lat="44.57127" lon="5.98012">
        <ele>974.4</ele>
        <time>2011-07-15T16:15:49Z</time>
      </trkpt>
      <trkpt lat="44.57088" lon="5.97867">
        <ele>973.6</ele>
        <time>2011-07-15T16:16:18Z</time>
      </trkpt>
      <trkpt lat="44.57112" lon="5.97804">
        <ele>977.6</ele>
        <time>2011-07-15T16:16:34Z</time>
      </trkpt>
      <trkpt lat="44.57073" lon="5.9766">
        <ele>975.6</ele>
        <time>2011-07-15T16:17:03Z</time>
      </trkpt>
      <trkpt lat="44.57088" lon="5.97579">
        <ele>980.4</ele>
        <time>2011-07-15T16:17:18Z</time>
      </trkpt>
      <trkpt lat="44.57063" lon="5.97507">
        <ele>978.2</ele>
        <time>2011-07-15T16:17:31Z</time>
      </trkpt>
      <trkpt lat="44.57074" lon="5.97448">
        <ele>980.2</ele>
        <time>2011-07-15T16:17:41Z</time>
      </trkpt>
      <trkpt lat="44.57037" lon="5.97331">
        <ele>974.8</ele>
        <time>2011-07-15T16:18:00Z</time>
      </trkpt>
      <trkpt lat="44.56974" lon="5.97242">
        <ele>972.4</ele>
        <time>2011-07-15T16:18:17Z</time>
      </trkpt>
      <trkpt lat="44.5695" lon="5.97176">
        <ele>972.2</ele>
        <time>2011-07-15T16:18:27Z</time>
      </trkpt>
      <trkpt lat="44.56939" lon="5.97057">
        <ele>975</ele>
        <time>2011-07-15T16:18:42Z</time>
      </trkpt>
      <trkpt lat="44.56877" lon="5.96916">
        <ele>975.2</ele>
        <time>2011-07-15T16:19:02Z</time>
      </trkpt>
      <trkpt lat="44.5681" lon="5.96814">
        <ele>980.2</ele>
        <time>2011-07-15T16:19:20Z</time>
      </trkpt>
      <trkpt lat="44.56646" lon="5.96665">
        <ele>975.8</ele>
        <time>2011-07-15T16:19:58Z</time>
      </trkpt>
      <trkpt lat="44.56586" lon="5.9653">
        <ele>970.8</ele>
        <time>2011-07-15T16:20:19Z</time>
      </trkpt>
      <trkpt lat="44.56561" lon="5.96409">
        <ele>973</ele>
        <time>2011-07-15T16:20:30Z</time>
      </trkpt>
      <trkpt lat="44.56396" lon="5.96115">
        <ele>950.8</ele>
        <time>2011-07-15T16:21:07Z</time>
      </trkpt>
      <trkpt lat="44.56367" lon="5.95896">
        <ele>944.6</ele>
        <time>2011-07-15T16:21:41Z</time>
      </trkpt>
      <trkpt lat="44.56323" lon="5.95828">
        <ele>942.6</ele>
        <time>2011-07-15T16:21:56Z</time>
      </trkpt>
      <trkpt lat="44.5628" lon="5.95805">
        <ele>941.2</ele>
        <time>2011-07-15T16:22:06Z</time>
      </trkpt>
      <trkpt lat="44.56229" lon="5.95672">
        <ele>937.8</ele>
        <time>2011-07-15T16:22:30Z</time>
      </trkpt>
    </trkseg>
  </trk>
</gpx>